Time;durP1;ratioP1;P1;durP2;ratioP2;P2;SDS_P1;SDS_P2;PMS_P1;PMS_P2;Temp;Humidity;BMP_temperature;BMP_pressure;BME280_temperature;BME280_humidity;BME280_pressure;Samples;Min_cycle;Max_cycle;Signal;HPM_P1;HPM_P2
2022/05/20 00:00:51;;;;;;;24.00;21.90;;;18.20;99.90;;;;;;5059572;28;20673;-70
2022/05/20 00:03:39;;;;;;;24.70;22.60;;;18.30;99.90;;;;;;5065772;28;20477;-70
2022/05/20 00:06:29;;;;;;;22.73;20.80;;;18.30;99.90;;;;;;5071532;28;20460;-70
2022/05/20 00:09:17;;;;;;;23.47;21.43;;;18.20;99.90;;;;;;5069484;28;20677;-70
2022/05/20 00:12:07;;;;;;;22.60;20.70;;;18.20;99.90;;;;;;5069041;28;20469;-70
2022/05/20 00:14:55;;;;;;;23.20;21.20;;;18.20;99.90;;;;;;5065541;28;20490;-70
2022/05/20 00:17:43;;;;;;;25.10;22.83;;;18.10;99.90;;;;;;5065434;28;20449;-70
2022/05/20 00:20:31;;;;;;;24.10;22.00;;;18.10;99.90;;;;;;5070579;28;20765;-70
2022/05/20 00:23:21;;;;;;;25.20;23.00;;;18.00;99.90;;;;;;5067712;28;20538;-70
2022/05/20 00:26:09;;;;;;;25.90;23.37;;;18.00;99.90;;;;;;5085030;28;20472;-71
2022/05/20 00:28:57;;;;;;;25.30;22.90;;;17.90;99.90;;;;;;5091640;28;20550;-71
2022/05/20 00:31:46;;;;;;;25.57;23.13;;;18.00;99.90;;;;;;5091160;28;21036;-71
2022/05/20 00:34:34;;;;;;;25.23;22.97;;;17.90;99.90;;;;;;5077714;28;20536;-70
2022/05/20 00:37:22;;;;;;;25.00;22.90;;;18.00;99.90;;;;;;5081260;28;20514;-71
2022/05/20 00:40:16;;;;;;;27.80;25.20;;;17.90;99.90;;;;;;5075332;28;20798;-70
2022/05/20 00:43:14;;;;;;;27.37;24.97;;;17.90;99.90;;;;;;5071035;28;20664;-70
2022/05/20 00:46:04;;;;;;;28.03;25.43;;;17.90;99.90;;;;;;5075059;28;20896;-70
2022/05/20 00:48:59;;;;;;;27.77;25.33;;;17.80;99.90;;;;;;5074422;28;20940;-70
2022/05/20 00:51:50;;;;;;;28.30;25.80;;;17.80;99.90;;;;;;5066503;28;20918;-70
2022/05/20 00:54:43;;;;;;;28.13;25.43;;;17.70;99.90;;;;;;5074397;28;20601;-70
2022/05/20 00:57:35;;;;;;;28.70;26.20;;;17.70;99.90;;;;;;5091608;28;20766;-71
2022/05/20 01:00:26;;;;;;;30.17;27.37;;;17.60;99.90;;;;;;5082318;28;20539;-70
2022/05/20 01:03:17;;;;;;;32.67;29.67;;;17.60;99.90;;;;;;5087498;28;20539;-70
2022/05/20 01:06:06;;;;;;;32.13;29.03;;;17.50;99.90;;;;;;5083729;28;20465;-70
2022/05/20 01:08:54;;;;;;;33.37;30.00;;;17.40;99.90;;;;;;5074754;28;20820;-70
2022/05/20 01:11:42;;;;;;;32.30;28.90;;;17.20;99.90;;;;;;5072021;28;20577;-70
2022/05/20 01:14:32;;;;;;;33.60;30.20;;;17.20;99.90;;;;;;5073320;28;20561;-70
2022/05/20 01:17:21;;;;;;;31.33;28.30;;;17.00;99.90;;;;;;5073764;28;20553;-70
2022/05/20 01:20:12;;;;;;;31.53;28.50;;;17.00;99.90;;;;;;5076041;28;20445;-70
2022/05/20 01:23:05;;;;;;;34.60;31.13;;;16.90;99.90;;;;;;5074086;28;20515;-69
2022/05/20 01:25:55;;;;;;;33.13;29.93;;;16.90;99.90;;;;;;5061050;28;20902;-70
2022/05/20 01:28:43;;;;;;;32.13;29.03;;;16.60;99.90;;;;;;5064763;28;20489;-70
2022/05/20 01:31:32;;;;;;;33.50;29.90;;;16.60;99.90;;;;;;5060104;28;20760;-70
2022/05/20 01:34:21;;;;;;;31.83;28.83;;;16.60;99.90;;;;;;5068636;28;20553;-69
2022/05/20 01:37:09;;;;;;;31.80;28.60;;;16.50;99.90;;;;;;5067187;28;21014;-70
2022/05/20 01:40:00;;;;;;;32.73;29.60;;;16.40;99.90;;;;;;5072538;28;20452;-70
2022/05/20 01:42:57;;;;;;;32.70;29.17;;;16.40;99.90;;;;;;5068411;28;20647;-70
2022/05/20 01:45:51;;;;;;;29.07;26.17;;;16.30;99.90;;;;;;5068799;28;20559;-70
2022/05/20 01:48:47;;;;;;;29.20;26.30;;;16.30;99.90;;;;;;5073280;28;20459;-70
2022/05/20 01:51:44;;;;;;;27.37;24.57;;;16.30;99.90;;;;;;5069033;28;20499;-70
2022/05/20 01:54:40;;;;;;;26.53;24.07;;;16.20;99.90;;;;;;5072354;28;20605;-70
2022/05/20 01:57:37;;;;;;;28.23;25.50;;;16.20;99.90;;;;;;5069949;28;20477;-70
2022/05/20 02:00:28;;;;;;;28.10;25.40;;;16.20;99.90;;;;;;5064668;28;20482;-70
2022/05/20 02:03:22;;;;;;;27.77;24.97;;;16.00;99.90;;;;;;5075722;28;20481;-70
2022/05/20 02:06:15;;;;;;;28.17;25.23;;;16.00;99.90;;;;;;5068843;28;20525;-70
2022/05/20 02:09:07;;;;;;;27.83;24.10;;;15.90;99.90;;;;;;5074481;28;20467;-70
2022/05/20 02:11:57;;;;;;;27.53;24.73;;;15.90;99.90;;;;;;5073288;28;20621;-70
2022/05/20 02:14:53;;;;;;;26.77;24.07;;;15.80;99.90;;;;;;5074951;28;20842;-70
2022/05/20 02:17:47;;;;;;;27.20;23.73;;;15.80;99.90;;;;;;5075907;28;20881;-70
2022/05/20 02:20:40;;;;;;;23.20;20.83;;;15.50;99.90;;;;;;5073158;28;20594;-70
2022/05/20 02:23:35;;;;;;;22.77;20.57;;;15.40;99.90;;;;;;5073586;28;20995;-70
2022/05/20 02:26:27;;;;;;;19.30;17.17;;;15.40;99.90;;;;;;5071358;28;20561;-70
2022/05/20 02:29:19;;;;;;;17.97;16.23;;;15.20;99.90;;;;;;5079571;28;20462;-70
2022/05/20 02:32:15;;;;;;;17.20;15.60;;;15.20;99.90;;;;;;5071049;28;21035;-70
2022/05/20 02:35:04;;;;;;;16.67;15.10;;;15.20;99.90;;;;;;5067395;28;20622;-72
2022/05/20 02:37:53;;;;;;;15.37;13.73;;;15.20;99.90;;;;;;5076477;28;20594;-70
2022/05/20 02:40:44;;;;;;;15.20;13.80;;;15.00;99.90;;;;;;5072043;28;20572;-70
2022/05/20 02:43:32;;;;;;;13.97;12.60;;;14.90;99.90;;;;;;5075069;28;20629;-70
2022/05/20 02:46:20;;;;;;;14.27;12.70;;;15.00;99.90;;;;;;5072937;28;20489;-70
2022/05/20 02:49:10;;;;;;;12.83;11.63;;;14.90;99.90;;;;;;5075719;28;20452;-70
2022/05/20 02:51:58;;;;;;;13.10;11.80;;;14.90;99.90;;;;;;5064056;28;20482;-70
2022/05/20 02:54:46;;;;;;;14.57;12.93;;;14.90;99.90;;;;;;5074148;28;20473;-70
2022/05/20 02:57:35;;;;;;;12.77;11.60;;;15.00;99.90;;;;;;5073896;28;20555;-70
2022/05/20 03:06:36;;;;;;;12.87;11.77;;;14.70;99.90;;;;;;5068687;28;20445;-70
2022/05/20 03:09:26;;;;;;;13.00;11.83;;;14.70;99.90;;;;;;5068085;28;20965;-70
2022/05/20 03:12:14;;;;;;;12.93;11.43;;;14.70;99.90;;;;;;5063716;28;20474;-70
2022/05/20 03:15:04;;;;;;;13.50;12.10;;;14.60;99.90;;;;;;5069966;28;20481;-70
2022/05/20 03:17:52;;;;;;;12.17;10.50;;;14.50;99.90;;;;;;5075017;28;20454;-70
2022/05/20 03:20:42;;;;;;;13.17;10.20;;;14.50;99.90;;;;;;5071914;28;20485;-70
2022/05/20 03:23:31;;;;;;;11.73;10.63;;;14.50;99.90;;;;;;5070253;28;20885;-70
2022/05/20 03:26:19;;;;;;;11.50;10.40;;;14.50;99.90;;;;;;5068255;28;20449;-70
2022/05/20 03:29:08;;;;;;;11.20;10.20;;;14.50;99.90;;;;;;5066377;28;20523;-70
2022/05/20 03:31:56;;;;;;;11.00;9.23;;;14.40;99.90;;;;;;5066193;28;20481;-70
2022/05/20 03:34:44;;;;;;;10.00;8.93;;;14.40;99.90;;;;;;5064532;28;20484;-70
2022/05/20 03:37:33;;;;;;;9.63;8.67;;;14.30;99.90;;;;;;5061993;28;20449;-70
2022/05/20 03:40:23;;;;;;;9.93;8.90;;;14.40;99.90;;;;;;5063216;28;20459;-70
2022/05/20 03:43:11;;;;;;;9.80;8.90;;;14.40;99.90;;;;;;5068807;28;20572;-70
2022/05/20 03:46:00;;;;;;;9.77;8.87;;;14.50;99.90;;;;;;5067437;28;20523;-70
2022/05/20 03:48:48;;;;;;;8.37;7.63;;;14.50;99.90;;;;;;5075774;28;20444;-70
2022/05/20 03:51:37;;;;;;;9.37;8.67;;;14.40;99.90;;;;;;5079180;28;20449;-70
2022/05/20 03:54:29;;;;;;;9.10;8.30;;;14.40;99.90;;;;;;5071665;28;20473;-70
2022/05/20 03:57:18;;;;;;;9.00;8.20;;;14.30;99.90;;;;;;5078321;28;20854;-70
2022/05/20 04:00:08;;;;;;;10.73;9.03;;;14.40;99.90;;;;;;5062436;28;20521;-70
2022/05/20 04:02:56;;;;;;;9.30;8.53;;;14.30;99.90;;;;;;5068241;28;20504;-70
2022/05/20 04:05:44;;;;;;;8.80;8.00;;;14.30;99.90;;;;;;5062148;28;20837;-70
2022/05/20 04:08:32;;;;;;;9.67;8.60;;;14.40;99.90;;;;;;5066051;28;20503;-70
2022/05/20 04:11:20;;;;;;;9.23;8.37;;;14.30;99.90;;;;;;5069341;28;20475;-70
2022/05/20 04:14:10;;;;;;;9.27;8.37;;;14.30;99.90;;;;;;5067327;28;20519;-70
2022/05/20 04:16:58;;;;;;;9.73;8.30;;;14.40;99.90;;;;;;5056205;28;24118;-70
2022/05/20 04:19:46;;;;;;;9.37;7.70;;;14.40;99.90;;;;;;5071872;28;20542;-70
2022/05/20 04:22:37;;;;;;;8.80;8.10;;;14.40;99.90;;;;;;5073549;28;20481;-70
2022/05/20 04:25:25;;;;;;;9.80;8.60;;;14.40;99.90;;;;;;5055883;28;20476;-70
2022/05/20 04:28:13;;;;;;;8.33;7.53;;;14.40;99.90;;;;;;5066978;28;20943;-70
2022/05/20 04:31:04;;;;;;;9.37;8.27;;;14.40;99.90;;;;;;5069028;28;20518;-70
2022/05/20 04:33:53;;;;;;;9.00;8.10;;;14.40;99.90;;;;;;5065877;28;20473;-70
2022/05/20 04:36:41;;;;;;;8.80;7.97;;;14.40;99.90;;;;;;5062693;28;20453;-70
2022/05/20 04:39:29;;;;;;;9.73;8.83;;;14.40;99.90;;;;;;5057470;28;20482;-70
2022/05/20 04:48:31;;;;;;;9.80;7.53;;;14.40;99.90;;;;;;5072152;28;20468;-70
2022/05/20 04:51:19;;;;;;;9.60;8.53;;;14.40;99.90;;;;;;5058937;28;20592;-70
2022/05/20 04:57:20;;;;;;;8.33;7.53;;;14.40;99.90;;;;;;5086425;28;20461;-71
2022/05/20 05:00:11;;;;;;;8.23;7.43;;;14.50;99.90;;;;;;5074541;28;20920;-69
2022/05/20 05:02:59;;;;;;;7.93;7.20;;;14.40;99.90;;;;;;5071276;28;20560;-71
2022/05/20 05:05:49;;;;;;;11.50;7.87;;;14.50;99.90;;;;;;5069962;28;20564;-69
2022/05/20 05:08:43;;;;;;;9.10;7.20;;;14.60;99.90;;;;;;5075914;28;20495;-69
2022/05/20 05:11:31;;;;;;;7.10;6.50;;;14.70;99.90;;;;;;5068589;28;20453;-69
2022/05/20 05:14:20;;;;;;;7.83;7.03;;;14.70;99.90;;;;;;5063645;28;20479;-70
2022/05/20 05:17:10;;;;;;;8.93;6.87;;;14.60;99.90;;;;;;5065525;28;20530;-70
2022/05/20 05:19:58;;;;;;;8.63;7.57;;;14.60;99.90;;;;;;5063421;28;20461;-70
2022/05/20 05:22:49;;;;;;;8.07;6.60;;;14.70;99.90;;;;;;5048418;28;21262;-70
2022/05/20 05:25:38;;;;;;;7.47;6.87;;;14.70;99.90;;;;;;5059343;28;21014;-70
2022/05/20 05:28:26;;;;;;;7.83;7.00;;;14.70;99.90;;;;;;5077400;28;20970;-70
2022/05/20 05:31:14;;;;;;;7.43;6.83;;;14.70;99.90;;;;;;5066862;28;20453;-71
2022/05/20 05:34:03;;;;;;;8.87;7.10;;;14.80;99.90;;;;;;5068425;28;20605;-70
2022/05/20 05:36:51;;;;;;;8.23;6.83;;;14.80;99.90;;;;;;5062105;28;20453;-71
2022/05/20 05:39:41;;;;;;;7.67;6.97;;;14.70;99.90;;;;;;5059807;28;20457;-70
2022/05/20 05:42:30;;;;;;;8.37;7.47;;;14.70;99.90;;;;;;5059845;28;20505;-71
2022/05/20 05:45:21;;;;;;;8.47;7.50;;;14.60;99.90;;;;;;5055819;28;20487;-71
2022/05/20 05:48:11;;;;;;;8.60;6.70;;;14.70;99.90;;;;;;5058322;28;20488;-70
2022/05/20 05:51:01;;;;;;;11.40;6.70;;;14.70;99.90;;;;;;5066712;28;21006;-71
2022/05/20 05:53:49;;;;;;;7.60;6.90;;;14.70;99.90;;;;;;5061076;28;20466;-71
2022/05/20 05:56:39;;;;;;;7.33;6.63;;;14.70;99.90;;;;;;5061669;28;20463;-71
2022/05/20 05:59:27;;;;;;;7.20;6.60;;;14.70;99.90;;;;;;5064083;28;20545;-70
2022/05/20 06:02:15;;;;;;;7.13;6.43;;;14.70;99.90;;;;;;5064618;28;20484;-71
2022/05/20 06:05:04;;;;;;;7.57;6.30;;;14.70;99.90;;;;;;5062803;28;20473;-70
2022/05/20 06:07:52;;;;;;;6.43;5.57;;;14.70;99.90;;;;;;5067982;28;20448;-70
2022/05/20 06:10:42;;;;;;;7.43;5.40;;;14.70;99.90;;;;;;5062568;28;20454;-70
2022/05/20 06:13:31;;;;;;;6.03;5.37;;;14.80;99.90;;;;;;5066939;28;20468;-71
2022/05/20 06:16:21;;;;;;;6.83;5.03;;;14.80;99.90;;;;;;5056865;28;20456;-71
2022/05/20 06:19:10;;;;;;;4.80;4.20;;;14.80;99.90;;;;;;5059240;28;20539;-70
2022/05/20 06:21:58;;;;;;;4.47;4.07;;;14.80;99.90;;;;;;5057851;28;21175;-70
2022/05/20 06:24:46;;;;;;;4.90;4.13;;;14.80;99.90;;;;;;5053179;28;20989;-71
2022/05/20 06:27:35;;;;;;;5.37;3.80;;;14.70;99.90;;;;;;5052333;28;20469;-71
2022/05/20 06:30:25;;;;;;;4.23;3.47;;;14.80;99.90;;;;;;5060328;28;21187;-70
2022/05/20 06:33:13;;;;;;;5.47;3.87;;;14.90;99.90;;;;;;5064053;28;20606;-70
2022/05/20 06:42:13;;;;;;;4.50;4.00;;;14.90;99.90;;;;;;5053420;28;20560;-71
2022/05/20 06:45:02;;;;;;;4.77;4.10;;;14.90;99.90;;;;;;5059219;28;20486;-70
2022/05/20 06:47:51;;;;;;;6.37;4.23;;;14.90;99.90;;;;;;5066569;28;20804;-71
2022/05/20 06:50:40;;;;;;;4.80;3.70;;;14.90;99.90;;;;;;5056213;28;20961;-70
2022/05/20 06:53:28;;;;;;;4.57;4.03;;;14.90;99.90;;;;;;5051976;28;20472;-71
2022/05/20 06:56:17;;;;;;;5.03;3.90;;;15.00;99.90;;;;;;5065625;28;20511;-70
2022/05/20 06:59:07;;;;;;;3.50;3.20;;;15.00;99.90;;;;;;5066638;28;20456;-71
2022/05/20 07:02:00;;;;;;;6.43;3.97;;;15.10;99.90;;;;;;5063507;28;20478;-71
2022/05/20 07:05:10;;;;;;;5.93;3.17;;;15.10;99.90;;;;;;5063774;28;20570;-71
2022/05/20 07:07:58;;;;;;;5.13;3.27;;;15.10;99.90;;;;;;5062863;28;20482;-71
2022/05/20 07:10:46;;;;;;;3.43;3.10;;;15.20;99.90;;;;;;5065809;28;20462;-71
2022/05/20 07:13:56;;;;;;;4.33;3.00;;;15.20;99.90;;;;;;5057892;28;20485;-70
2022/05/20 07:16:44;;;;;;;5.50;2.77;;;15.20;99.90;;;;;;5065577;28;20480;-71
2022/05/20 07:19:33;;;;;;;4.30;2.73;;;15.20;99.90;;;;;;5063248;28;20534;-70
2022/05/20 07:22:22;;;;;;;3.87;2.50;;;15.10;99.90;;;;;;5067731;28;20482;-71
2022/05/20 07:25:11;;;;;;;6.47;3.20;;;15.10;99.90;;;;;;5057512;28;20465;-71
2022/05/20 07:28:00;;;;;;;4.07;3.07;;;15.20;99.90;;;;;;5070257;28;20453;-71
2022/05/20 07:30:48;;;;;;;3.60;2.93;;;15.20;99.90;;;;;;5061384;28;20837;-71
2022/05/20 07:33:38;;;;;;;5.97;3.13;;;15.40;99.90;;;;;;5065287;28;20524;-71
2022/05/20 07:36:26;;;;;;;6.17;2.67;;;15.40;99.90;;;;;;5066632;28;20448;-71
2022/05/20 07:39:15;;;;;;;3.47;2.63;;;15.30;99.90;;;;;;5064867;28;20487;-71
2022/05/20 07:42:04;;;;;;;5.33;2.40;;;15.30;99.90;;;;;;5061382;28;20489;-71
2022/05/20 07:44:52;;;;;;;4.23;2.60;;;15.40;99.90;;;;;;5064532;28;20488;-71
2022/05/20 07:47:41;;;;;;;3.40;2.50;;;15.40;99.90;;;;;;5057002;28;20452;-71
2022/05/20 07:50:34;;;;;;;3.57;2.17;;;15.40;99.90;;;;;;5054484;28;20497;-71
2022/05/20 07:53:33;;;;;;;4.20;2.70;;;15.50;99.90;;;;;;5063843;28;20465;-70
2022/05/20 07:56:26;;;;;;;3.30;2.60;;;15.60;99.90;;;;;;5064489;28;21037;-71
2022/05/20 07:59:19;;;;;;;3.00;2.43;;;15.60;99.90;;;;;;5066571;28;20446;-70
2022/05/20 08:02:07;;;;;;;3.40;3.03;;;15.60;99.90;;;;;;5060108;28;20465;-71
2022/05/20 08:05:00;;;;;;;3.80;3.10;;;15.60;99.90;;;;;;5053680;28;21076;-70
2022/05/20 08:07:51;;;;;;;6.50;3.17;;;15.60;99.90;;;;;;5068673;28;20814;-71
2022/05/20 08:10:39;;;;;;;3.93;3.07;;;15.60;99.90;;;;;;5071225;28;20904;-71
2022/05/20 08:13:29;;;;;;;3.10;2.80;;;15.70;99.90;;;;;;5067899;28;20469;-71
2022/05/20 08:16:18;;;;;;;6.57;3.23;;;15.80;99.90;;;;;;5068326;28;21187;-71
2022/05/20 08:19:06;;;;;;;4.33;2.70;;;15.80;99.90;;;;;;5075991;28;20475;-71
2022/05/20 08:21:55;;;;;;;2.70;2.50;;;15.90;99.90;;;;;;5077318;28;20910;-71
2022/05/20 08:24:43;;;;;;;5.07;2.93;;;16.00;99.90;;;;;;5064825;28;21304;-71
2022/05/20 08:27:32;;;;;;;4.23;3.10;;;16.00;99.90;;;;;;5060250;28;20445;-71
2022/05/20 08:30:25;;;;;;;2.83;2.63;;;16.00;99.90;;;;;;5059120;28;20483;-71
2022/05/20 08:33:13;;;;;;;5.73;2.97;;;16.10;99.90;;;;;;5058290;28;20474;-71
2022/05/20 08:36:04;;;;;;;5.00;3.03;;;16.00;99.90;;;;;;5062703;28;20466;-71
2022/05/20 08:38:52;;;;;;;3.50;2.70;;;15.90;99.90;;;;;;5068969;28;20453;-71
2022/05/20 08:41:43;;;;;;;4.10;2.97;;;16.00;99.90;;;;;;5050484;28;20465;-71
2022/05/20 08:44:34;;;;;;;3.40;3.03;;;16.10;99.90;;;;;;5057292;28;20956;-71
2022/05/20 08:47:27;;;;;;;3.60;3.00;;;16.20;99.90;;;;;;5059579;28;20553;-71
2022/05/20 08:50:20;;;;;;;4.40;2.57;;;16.20;99.90;;;;;;5057183;28;21051;-71
2022/05/20 08:53:26;;;;;;;3.30;2.57;;;16.20;99.90;;;;;;5056407;28;20980;-71
2022/05/20 08:56:19;;;;;;;4.17;2.57;;;16.20;99.90;;;;;;5063424;28;20489;-71
2022/05/20 08:59:12;;;;;;;3.03;2.70;;;16.20;99.90;;;;;;5061076;28;20951;-71
2022/05/20 09:02:00;;;;;;;4.87;2.77;;;16.30;99.90;;;;;;5053170;28;20526;-71
2022/05/20 09:04:51;;;;;;;3.87;2.90;;;16.30;99.90;;;;;;5062839;28;20488;-71
2022/05/20 09:07:57;;;;;;;3.47;2.90;;;16.30;99.90;;;;;;5072331;28;20457;-71
2022/05/20 09:10:49;;;;;;;3.57;3.27;;;16.40;99.90;;;;;;5060781;28;20461;-71
2022/05/20 09:16:56;;;;;;;3.93;3.00;;;16.40;99.90;;;;;;5069434;28;20446;-69
2022/05/20 09:19:56;;;;;;;3.03;2.73;;;16.50;99.90;;;;;;5066024;28;20487;-69
2022/05/20 09:22:56;;;;;;;5.10;3.03;;;16.60;99.90;;;;;;5060586;28;20584;-69
2022/05/20 09:26:01;;;;;;;4.13;3.40;;;16.60;99.90;;;;;;5063853;28;20568;-70
2022/05/20 09:28:54;;;;;;;4.73;3.00;;;16.60;99.90;;;;;;5069402;28;20492;-70
2022/05/20 09:31:48;;;;;;;5.10;3.63;;;16.60;99.90;;;;;;5061770;28;20924;-70
2022/05/20 09:34:39;;;;;;;4.47;3.07;;;16.70;99.90;;;;;;5066558;28;20470;-69
2022/05/20 09:37:31;;;;;;;5.57;3.67;;;16.70;99.90;;;;;;5068520;28;20997;-70
2022/05/20 09:40:26;;;;;;;3.37;2.77;;;16.80;99.90;;;;;;5064149;28;20468;-71
2022/05/20 09:43:39;;;;;;;5.27;2.80;;;16.80;99.90;;;;;;5069158;28;20491;-71
2022/05/20 09:46:33;;;;;;;3.53;3.00;;;16.90;99.90;;;;;;5063601;28;20442;-70
2022/05/20 09:49:29;;;;;;;5.83;3.17;;;16.90;99.90;;;;;;5064588;28;20613;-70
2022/05/20 09:52:23;;;;;;;5.60;3.20;;;17.00;99.90;;;;;;5066298;28;20482;-70
2022/05/20 09:55:16;;;;;;;3.30;3.00;;;17.00;99.90;;;;;;5057370;28;20898;-70
2022/05/20 09:58:14;;;;;;;6.33;3.70;;;17.10;99.90;;;;;;5065075;28;20952;-70
2022/05/20 10:01:11;;;;;;;4.40;3.97;;;17.10;99.90;;;;;;5063168;28;20449;-70
2022/05/20 10:04:04;;;;;;;4.23;3.30;;;17.10;99.90;;;;;;5046782;28;20477;-71
2022/05/20 10:06:58;;;;;;;3.23;2.90;;;17.10;99.90;;;;;;5057452;28;20460;-70
2022/05/20 10:09:54;;;;;;;4.30;3.20;;;17.20;99.90;;;;;;5072232;28;20588;-70
2022/05/20 10:12:48;;;;;;;4.07;3.40;;;17.30;99.90;;;;;;5071655;28;20464;-70
2022/05/20 10:15:41;;;;;;;3.73;3.30;;;17.40;99.90;;;;;;5062661;28;20519;-70
2022/05/20 10:18:38;;;;;;;5.10;3.70;;;17.50;99.90;;;;;;5072255;28;20476;-70
2022/05/20 10:21:42;;;;;;;7.20;3.97;;;17.50;99.90;;;;;;5078308;28;20962;-70
2022/05/20 10:24:46;;;;;;;3.47;2.97;;;17.60;99.90;;;;;;5063565;28;22556;-70
2022/05/20 10:27:39;;;;;;;3.93;3.50;;;17.70;99.90;;;;;;5077440;28;20488;-70
2022/05/20 10:33:39;;;;;;;34.33;17.80;;;17.80;99.90;;;;;;5069374;28;20532;-70
2022/05/20 10:36:37;;;;;;;11.50;8.77;;;17.90;99.90;;;;;;5074273;28;20464;-69
2022/05/20 10:39:44;;;;;;;29.23;17.60;;;18.00;99.90;;;;;;5070772;28;20457;-72
2022/05/20 10:42:55;;;;;;;24.23;15.93;;;18.20;99.90;;;;;;5062645;28;20556;-71
2022/05/20 10:49:14;;;;;;;8.43;5.03;;;18.30;99.90;;;;;;5048891;28;20457;-71
2022/05/20 10:52:13;;;;;;;5.10;4.30;;;18.50;99.90;;;;;;5061467;28;21055;-71
2022/05/20 10:55:20;;;;;;;4.53;3.67;;;18.60;99.90;;;;;;5068135;28;21222;-71
2022/05/20 10:58:41;;;;;;;5.07;3.13;;;18.80;99.90;;;;;;5067277;28;21021;-71
2022/05/20 11:01:42;;;;;;;3.70;3.40;;;18.90;99.90;;;;;;5061028;28;20457;-70
2022/05/20 11:04:52;;;;;;;3.73;3.27;;;19.00;99.90;;;;;;5060489;28;20477;-70
2022/05/20 11:08:09;;;;;;;3.83;3.43;;;19.00;99.90;;;;;;5063818;28;20471;-70
2022/05/20 11:11:29;;;;;;;3.40;3.10;;;19.10;99.90;;;;;;5065174;28;21176;-71
2022/05/20 11:15:03;;;;;;;4.60;3.40;;;19.10;99.90;;;;;;5056526;28;20583;-71
2022/05/20 11:18:14;;;;;;;3.60;3.30;;;19.20;99.90;;;;;;5011812;28;20536;-71
2022/05/20 11:21:33;;;;;;;3.17;2.97;;;19.30;99.90;;;;;;5059160;28;20956;-72
2022/05/20 11:24:39;;;;;;;3.80;2.80;;;19.40;99.90;;;;;;5052038;28;20584;-71
2022/05/20 11:27:56;;;;;;;5.17;3.77;;;19.60;99.90;;;;;;5057323;28;20987;-70
2022/05/20 11:31:01;;;;;;;3.13;2.93;;;19.70;99.90;;;;;;5052302;28;21293;-71
2022/05/20 11:34:06;;;;;;;4.53;3.10;;;19.70;99.90;;;;;;5057025;28;20480;-70
2022/05/20 11:37:24;;;;;;;3.77;3.40;;;19.80;99.90;;;;;;5061748;28;20464;-69
2022/05/20 11:40:34;;;;;;;3.97;2.93;;;19.90;99.90;;;;;;5063315;28;20492;-70
2022/05/20 11:44:01;;;;;;;3.20;2.90;;;19.90;99.90;;;;;;5050676;28;20507;-70
2022/05/20 11:47:10;;;;;;;5.40;3.40;;;20.00;99.90;;;;;;5034920;28;20530;-71
2022/05/20 11:50:21;;;;;;;3.40;3.10;;;20.10;99.90;;;;;;5060210;28;20465;-70
2022/05/20 11:53:14;;;;;;;3.53;3.23;;;20.20;99.90;;;;;;5062145;28;20831;-71
2022/05/20 11:56:08;;;;;;;5.93;3.20;;;20.40;99.90;;;;;;5056837;28;21558;-71
2022/05/20 11:59:06;;;;;;;3.10;2.80;;;20.50;99.90;;;;;;5057851;28;20542;-70
2022/05/20 12:01:58;;;;;;;7.07;3.83;;;20.70;99.90;;;;;;5055664;28;20572;-70
2022/05/20 12:04:50;;;;;;;4.00;3.00;;;20.80;99.90;;;;;;5045375;28;22982;-71
2022/05/20 12:07:41;;;;;;;3.30;3.00;;;20.90;99.90;;;;;;5058613;28;20445;-70
2022/05/20 12:10:57;;;;;;;5.23;3.50;;;20.90;99.90;;;;;;5054126;28;20458;-70
2022/05/20 12:14:00;;;;;;;4.90;3.23;;;20.90;99.90;;;;;;5019422;28;20482;-70
2022/05/20 12:16:59;;;;;;;3.50;3.20;;;21.00;99.90;;;;;;5047416;28;20469;-70
2022/05/20 12:26:42;;;;;;;3.50;3.20;;;21.10;99.90;;;;;;5022525;28;20485;-71
2022/05/20 12:30:05;;;;;;;4.10;2.77;;;21.10;99.90;;;;;;5060991;28;20478;-71
2022/05/20 12:32:54;;;;;;;3.60;3.20;;;21.10;99.90;;;;;;5061972;28;20477;-71
2022/05/20 12:36:17;;;;;;;3.30;3.00;;;21.20;99.90;;;;;;5071052;28;20567;-72
2022/05/20 12:39:47;;;;;;;4.73;3.40;;;21.20;99.90;;;;;;5065988;28;20510;-71
2022/05/20 12:42:45;;;;;;;3.27;2.80;;;21.20;99.90;;;;;;5060487;28;20468;-69
2022/05/20 12:45:37;;;;;;;4.03;3.07;;;21.20;99.90;;;;;;5064523;28;20512;-70
2022/05/20 12:48:29;;;;;;;3.40;3.07;;;21.20;99.90;;;;;;5059885;28;20461;-70
2022/05/20 12:51:19;;;;;;;3.80;3.40;;;21.20;99.90;;;;;;5067350;28;20453;-70
2022/05/20 12:54:15;;;;;;;3.40;2.83;;;21.30;99.90;;;;;;5055094;28;20615;-71
2022/05/20 12:57:06;;;;;;;4.67;3.00;;;21.30;99.90;;;;;;5058891;28;20546;-71
2022/05/20 12:59:58;;;;;;;3.90;3.27;;;21.40;99.90;;;;;;5062629;28;20541;-71
2022/05/20 13:02:52;;;;;;;4.00;3.40;;;21.30;99.90;;;;;;5071665;28;20491;-70
2022/05/20 13:05:48;;;;;;;3.90;3.60;;;21.30;99.90;;;;;;5062676;28;20485;-71
2022/05/20 13:08:48;;;;;;;3.57;3.10;;;21.30;99.90;;;;;;5057024;28;20504;-71
2022/05/20 13:11:41;;;;;;;3.93;3.50;;;21.40;99.90;;;;;;5058021;28;20642;-70
2022/05/20 13:14:30;;;;;;;3.90;3.60;;;21.50;99.90;;;;;;5058188;28;20475;-72
2022/05/20 13:17:22;;;;;;;3.90;3.60;;;21.60;99.90;;;;;;5046465;28;20826;-74
2022/05/20 13:20:12;;;;;;;3.73;3.43;;;21.70;99.90;;;;;;5060736;28;20464;-74
2022/05/20 13:23:03;;;;;;;5.10;3.93;;;21.80;99.90;;;;;;5055326;28;20492;-73
2022/05/20 13:25:52;;;;;;;3.33;3.13;;;21.90;99.90;;;;;;5055417;28;20496;-72
2022/05/20 13:28:40;;;;;;;3.77;3.47;;;22.10;99.90;;;;;;5056501;28;20470;-71
2022/05/20 13:31:29;;;;;;;3.37;3.07;;;22.30;99.90;;;;;;5061022;28;20895;-72
2022/05/20 13:34:17;;;;;;;3.17;2.87;;;22.40;99.90;;;;;;5060381;28;20480;-70
2022/05/20 13:37:09;;;;;;;3.60;3.30;;;22.50;99.90;;;;;;5056048;28;20473;-70
2022/05/20 13:40:02;;;;;;;4.17;3.77;;;22.70;99.90;;;;;;5053667;28;20466;-70
2022/05/20 13:42:53;;;;;;;4.20;3.90;;;22.80;99.90;;;;;;5058851;28;20828;-74
2022/05/20 13:49:15;;;;;;;5.33;4.23;;;22.80;99.90;;;;;;5044896;28;20488;-73
2022/05/20 13:52:06;;;;;;;4.03;3.73;;;23.00;99.90;;;;;;5058254;28;20480;-69
2022/05/20 13:55:00;;;;;;;3.77;3.47;;;23.10;99.90;;;;;;5060560;28;20942;-70
2022/05/20 13:57:51;;;;;;;4.03;3.63;;;23.30;99.90;;;;;;5072764;28;20441;-69
2022/05/20 14:00:45;;;;;;;4.40;4.03;;;23.40;99.90;;;;;;5051040;28;21182;-69
2022/05/20 14:03:35;;;;;;;4.47;4.17;;;23.60;99.90;;;;;;5065847;28;20523;-70
2022/05/20 14:06:28;;;;;;;5.07;4.50;;;23.60;99.90;;;;;;5059980;28;20965;-70
2022/05/20 14:09:17;;;;;;;4.17;3.73;;;23.60;99.90;;;;;;5057640;28;20445;-70
2022/05/20 14:12:06;;;;;;;3.70;3.50;;;23.80;99.90;;;;;;5060012;28;21203;-70
2022/05/20 14:15:02;;;;;;;4.23;3.93;;;23.90;99.90;;;;;;5042345;28;20474;-69
2022/05/20 14:17:50;;;;;;;5.83;3.90;;;23.80;99.90;;;;;;5063908;28;20443;-71
2022/05/20 14:20:43;;;;;;;4.50;4.10;;;23.80;99.90;;;;;;5059792;28;20480;-71
2022/05/20 14:23:36;;;;;;;6.00;5.47;;;23.90;99.90;;;;;;5044721;28;20496;-70
2022/05/20 14:26:36;;;;;;;5.80;4.73;;;24.40;99.90;;;;;;5046205;28;20617;-69
2022/05/20 14:29:31;;;;;;;4.27;3.97;;;25.30;99.90;;;;;;5042540;28;21242;-70
2022/05/20 14:32:21;;;;;;;5.07;4.67;;;25.80;99.90;;;;;;5041448;28;20470;-69
2022/05/20 14:35:11;;;;;;;4.20;3.90;;;25.90;99.90;;;;;;5056467;28;20477;-69
2022/05/20 14:38:02;;;;;;;5.40;4.90;;;25.80;99.90;;;;;;5054710;28;20556;-70
2022/05/20 14:40:53;;;;;;;3.93;3.63;;;25.60;99.90;;;;;;5064578;28;20463;-70
2022/05/20 14:43:50;;;;;;;4.27;3.97;;;25.50;99.90;;;;;;5059522;28;20500;-70
2022/05/20 14:49:56;;;;;;;5.33;4.90;;;25.10;99.90;;;;;;5055802;28;20454;-70
2022/05/20 14:52:54;;;;;;;5.27;4.57;;;24.80;99.90;;;;;;5056672;28;21084;-70
2022/05/20 14:55:44;;;;;;;10.33;4.30;;;24.60;99.90;;;;;;5054335;28;20489;-70
2022/05/20 14:58:35;;;;;;;5.00;4.57;;;24.50;99.90;;;;;;5053632;28;20975;-73
2022/05/20 15:01:32;;;;;;;5.73;5.10;;;24.40;99.90;;;;;;5065629;28;20457;-71
2022/05/20 15:04:24;;;;;;;6.10;4.73;;;24.20;99.90;;;;;;5074348;28;20486;-70
2022/05/20 15:07:15;;;;;;;4.27;3.87;;;23.90;99.90;;;;;;5074933;28;20475;-70
2022/05/20 15:10:09;;;;;;;3.70;3.40;;;23.80;99.90;;;;;;5081311;28;20553;-70
2022/05/20 15:12:58;;;;;;;4.30;3.40;;;23.60;99.90;;;;;;5061516;28;20631;-71
2022/05/20 15:15:46;;;;;;;3.40;3.17;;;23.60;99.90;;;;;;5058021;28;20547;-70
2022/05/20 15:18:34;;;;;;;3.43;3.13;;;23.50;99.90;;;;;;5055820;28;22535;-71
2022/05/20 15:21:26;;;;;;;3.80;3.30;;;23.30;99.90;;;;;;5060842;28;20525;-71
2022/05/20 15:24:20;;;;;;;3.30;3.10;;;23.20;99.90;;;;;;5069970;28;20548;-71
2022/05/20 15:27:19;;;;;;;2.90;2.70;;;23.10;99.90;;;;;;5058616;28;20469;-71
2022/05/20 15:30:09;;;;;;;4.30;3.00;;;23.00;99.90;;;;;;5045028;28;20952;-71
2022/05/20 15:36:03;;;;;;;3.03;2.73;;;22.80;99.90;;;;;;5058710;28;20855;-71
2022/05/20 15:38:51;;;;;;;2.77;2.57;;;22.70;99.90;;;;;;5059734;28;20476;-70
2022/05/20 15:41:41;;;;;;;2.90;2.70;;;22.60;99.90;;;;;;5057328;28;20450;-70